Islandia, New York
Current Conditions -  °F | °C
As of 12:42 PM on Monday 24 Nov 2014 (Local Time) from KISP Reporting Station
Drizzle Drizzle  
Wind Chill: 60°   Ceiling: 200
Heat Index: 60°   Visibility: 0.25mi
Dew Point: 59°   Wind: 20mph
Humidity: 96%   Direction: 200°SSW
Pressure: 29.65"   Gusts: 30mph
Location:  40.8°N, 73.17°W
Report Text: KISP 241742Z 20017G26KT 1/4SM R06/2200V2400FT -DZ FG VV002 16/15 A2965 RMK AO2 PK WND 20026/1737 DZB02 P0000 T01560150
Loading
Personal Weather Stations






























Interactive Weather Map New forecast layout! Learn more

10-Day Weather Forecast

Advertisements
Track Severe Weather on mobile